Terminal Aerodrome Forecast
Issued by NWS

Current Version | Previous Version | Graphics & Text | Print | Product List | Glossary On
Versions: 1 2 3 4 5 6 7 8 9 10 11 12 13 14 15 16 17 18
000
FTUS41 KPBZ 041722
TAFMGW
TAF
KMGW 041722Z 0418/0518 02005KT P6SM BKN100
     FM050100 08006KT P6SM VCSH OVC040
     FM050300 12006KT 3SM -RA OVC015
     FM050600 19007KT 5SM -RA OVC008
     FM050900 24007KT P6SM VCSH OVC010
     FM051200 26006KT P6SM BKN015
     FM051700 29005KT P6SM BKN025=

USA.gov is the U.S. government's official web portal to all federal, state and local government web resources and services.